createdAt,value
2019-03-19T00:00:15.976Z,5.63
2019-03-19T00:03:20.020Z,5.63
2019-03-19T00:06:23.231Z,5.65
2019-03-19T00:09:26.414Z,5.59
2019-03-19T00:12:29.702Z,5.56
2019-03-19T00:15:32.801Z,5.56
2019-03-19T00:18:36.036Z,5.51
2019-03-19T00:21:39.146Z,5.45
2019-03-19T00:24:42.279Z,5.49
2019-03-19T00:27:45.467Z,5.48
2019-03-19T00:30:48.564Z,5.46
2019-03-19T00:33:51.764Z,5.41
2019-03-19T00:36:54.951Z,5.33
2019-03-19T00:39:58.164Z,5.28
2019-03-19T00:43:01.344Z,5.27
2019-03-19T00:46:04.640Z,5.26
2019-03-19T00:49:07.853Z,5.27
2019-03-19T00:52:11.028Z,5.35
2019-03-19T00:55:14.227Z,5.36
2019-03-19T00:58:17.512Z,5.38
2019-03-19T01:01:20.587Z,5.38
2019-03-19T01:04:23.707Z,5.40
2019-03-19T01:07:26.901Z,5.43
2019-03-19T01:10:30.092Z,5.42
2019-03-19T01:13:33.183Z,5.44
2019-03-19T01:16:36.482Z,5.47
2019-03-19T01:19:39.570Z,5.39
2019-03-19T01:22:42.889Z,5.39
2019-03-19T01:25:55.213Z,5.31
2019-03-19T01:28:49.263Z,5.31
2019-03-19T01:31:52.447Z,5.31
2019-03-19T01:34:55.549Z,5.32
2019-03-19T01:37:58.748Z,5.25
2019-03-19T01:41:01.935Z,5.24
2019-03-19T01:44:05.125Z,5.10
2019-03-19T01:47:08.224Z,5.05
2019-03-19T01:50:11.523Z,4.96
2019-03-19T01:53:14.812Z,4.90
2019-03-19T01:56:18.106Z,4.87
2019-03-19T01:59:21.206Z,4.79
2019-03-19T02:02:24.390Z,4.71
2019-03-19T02:05:27.494Z,4.67
2019-03-19T02:08:30.687Z,4.54
2019-03-19T02:11:33.899Z,4.46
2019-03-19T02:14:37.081Z,4.31
2019-03-19T02:17:40.269Z,4.25
2019-03-19T02:20:43.466Z,4.17
2019-03-19T02:23:46.745Z,4.16
2019-03-19T02:26:50.227Z,4.13
2019-03-19T02:29:53.352Z,4.04
2019-03-19T02:32:56.551Z,3.95
2019-03-19T02:35:59.646Z,4.03
2019-03-19T02:39:02.874Z,4.09
2019-03-19T02:42:06.132Z,4.06
2019-03-19T02:45:09.337Z,4.08
2019-03-19T02:48:12.521Z,3.94
2019-03-19T02:51:15.603Z,3.86
2019-03-19T02:54:18.692Z,3.77
2019-03-19T02:57:21.896Z,3.77
2019-03-19T03:00:25.009Z,3.79
2019-03-19T03:03:28.180Z,3.87
2019-03-19T03:06:31.396Z,3.90
2019-03-19T03:09:34.581Z,3.86
2019-03-19T03:12:37.840Z,3.92
2019-03-19T03:15:40.998Z,3.87
2019-03-19T03:18:44.150Z,3.79
2019-03-19T03:21:47.343Z,3.71
2019-03-19T03:24:50.537Z,3.65
2019-03-19T03:27:53.761Z,3.65
2019-03-19T03:30:56.976Z,3.68
2019-03-19T03:34:00.015Z,3.70
2019-03-19T03:37:03.105Z,3.77
2019-03-19T03:40:07.776Z,3.81
2019-03-19T03:43:10.938Z,3.81
2019-03-19T03:46:14.137Z,3.83
2019-03-19T03:49:17.209Z,3.85
2019-03-19T03:52:20.317Z,3.89
2019-03-19T03:55:23.888Z,3.82
2019-03-19T03:58:27.021Z,3.80
2019-03-19T04:01:30.196Z,3.81
2019-03-19T04:04:34.321Z,3.90
2019-03-19T04:07:43.391Z,3.88
2019-03-19T04:10:46.678Z,3.77
2019-03-19T04:13:49.840Z,3.74
2019-03-19T04:16:52.946Z,3.70
2019-03-19T04:19:56.037Z,3.72
2019-03-19T04:22:59.220Z,3.76
2019-03-19T04:26:02.415Z,3.86
2019-03-19T04:29:05.609Z,3.91
2019-03-19T04:32:08.798Z,3.88
2019-03-19T04:35:12.009Z,3.83
2019-03-19T04:38:15.197Z,3.89
2019-03-19T04:41:18.379Z,3.93
2019-03-19T04:44:21.502Z,3.98
2019-03-19T04:47:24.672Z,4.03
2019-03-19T04:50:27.888Z,3.94
2019-03-19T04:53:32.085Z,3.79
2019-03-19T04:56:35.367Z,3.76
2019-03-19T04:59:38.496Z,3.74
2019-03-19T05:02:41.781Z,3.76
2019-03-19T05:05:44.959Z,3.47
2019-03-19T05:08:48.458Z,3.30
2019-03-19T05:11:51.583Z,3.28
2019-03-19T05:14:54.739Z,3.27
2019-03-19T05:17:57.979Z,3.27
2019-03-19T05:21:01.128Z,3.16
2019-03-19T05:24:04.253Z,3.09
2019-03-19T05:27:07.435Z,3.13
2019-03-19T05:30:11.240Z,3.21
2019-03-19T05:33:14.523Z,3.11
2019-03-19T05:36:17.720Z,3.03
2019-03-19T05:39:20.908Z,3.00
2019-03-19T05:42:24.637Z,3.08
2019-03-19T05:45:27.839Z,3.14
2019-03-19T05:48:31.036Z,3.20
2019-03-19T05:51:34.203Z,3.27
2019-03-19T05:54:37.304Z,3.27
2019-03-19T05:57:48.981Z,3.29
2019-03-19T06:00:43.675Z,3.34
2019-03-19T06:03:46.799Z,3.33
2019-03-19T06:06:49.996Z,3.33
2019-03-19T06:09:53.180Z,3.43
2019-03-19T06:12:56.362Z,3.58
2019-03-19T06:15:59.556Z,3.63
2019-03-19T06:19:02.751Z,3.68
2019-03-19T06:22:05.948Z,3.74
2019-03-19T06:25:09.668Z,3.77
2019-03-19T06:28:12.847Z,3.83
2019-03-19T06:31:16.036Z,3.95
2019-03-19T06:34:19.132Z,4.03
2019-03-19T06:37:22.499Z,4.09
2019-03-19T06:40:25.627Z,4.16
2019-03-19T06:43:28.814Z,4.19
2019-03-19T06:46:32.046Z,4.28
2019-03-19T06:49:35.297Z,4.34
2019-03-19T06:52:38.515Z,4.23
2019-03-19T06:55:41.788Z,4.21
2019-03-19T06:58:44.891Z,4.22
2019-03-19T07:01:48.194Z,4.29
2019-03-19T07:04:51.462Z,4.27
2019-03-19T07:07:54.571Z,4.32
2019-03-19T07:10:57.770Z,4.34
2019-03-19T07:14:00.853Z,4.31
2019-03-19T07:17:04.129Z,4.38
2019-03-19T07:20:08.339Z,4.52
2019-03-19T07:23:11.477Z,4.60
2019-03-19T07:26:14.563Z,4.79
2019-03-19T07:29:17.760Z,4.77
2019-03-19T07:32:20.952Z,4.87
2019-03-19T07:35:24.170Z,4.99
2019-03-19T07:38:27.344Z,5.15
2019-03-19T07:41:30.536Z,4.99
2019-03-19T07:44:33.723Z,5.04
2019-03-19T07:47:36.941Z,5.05
2019-03-19T07:50:40.121Z,5.18
2019-03-19T07:53:43.311Z,5.46
2019-03-19T07:56:46.503Z,5.56
2019-03-19T07:59:49.705Z,5.72
2019-03-19T08:02:52.885Z,5.76
2019-03-19T08:05:56.090Z,5.69
2019-03-19T08:08:59.299Z,5.71
2019-03-19T08:12:02.487Z,5.75
2019-03-19T08:15:06.800Z,5.81
2019-03-19T08:18:10.044Z,5.80
2019-03-19T08:21:13.093Z,5.94
2019-03-19T08:24:16.668Z,5.98
2019-03-19T08:27:19.775Z,6.04
2019-03-19T08:30:24.560Z,6.38
2019-03-19T08:33:26.210Z,6.41
2019-03-19T08:36:29.367Z,6.35
2019-03-19T08:39:32.557Z,6.64
2019-03-19T08:42:35.754Z,6.95
2019-03-19T08:45:38.984Z,7.06
2019-03-19T08:48:42.147Z,7.17
2019-03-19T08:51:45.336Z,7.36
2019-03-19T08:54:48.537Z,7.26
2019-03-19T08:57:51.615Z,7.09
2019-03-19T09:00:54.719Z,7.20
2019-03-19T09:03:57.908Z,7.16
2019-03-19T09:07:01.097Z,7.22
2019-03-19T09:10:05.077Z,7.44
2019-03-19T09:13:08.208Z,7.31
2019-03-19T09:16:11.404Z,7.30
2019-03-19T09:19:14.611Z,7.30
2019-03-19T09:22:17.787Z,7.46
2019-03-19T09:25:20.988Z,7.60
2019-03-19T09:28:24.180Z,7.61
2019-03-19T09:31:27.271Z,7.60
2019-03-19T09:34:30.459Z,7.90
2019-03-19T09:37:33.665Z,8.31
2019-03-19T09:40:36.840Z,8.42
2019-03-19T09:43:39.950Z,8.64
2019-03-19T09:46:43.145Z,8.79
2019-03-19T09:49:46.340Z,8.75
2019-03-19T09:52:49.438Z,8.32
2019-03-19T09:55:52.632Z,8.37
2019-03-19T09:58:55.812Z,8.48
2019-03-19T10:01:59.009Z,8.56
2019-03-19T10:05:02.133Z,8.81
2019-03-19T10:08:05.291Z,9.08
2019-03-19T10:11:08.484Z,9.16
2019-03-19T10:14:11.575Z,9.16
2019-03-19T10:17:14.662Z,9.06
2019-03-19T10:20:18.302Z,8.87
2019-03-19T10:23:20.976Z,9.11
2019-03-19T10:26:24.056Z,9.24
2019-03-19T10:29:37.560Z,9.03
2019-03-19T10:32:30.431Z,9.30
2019-03-19T10:35:33.528Z,9.46
2019-03-19T10:38:36.627Z,9.54
2019-03-19T10:41:39.808Z,9.31
2019-03-19T10:44:42.903Z,8.96
2019-03-19T10:47:46.227Z,8.85
2019-03-19T10:50:49.397Z,9.08
2019-03-19T10:53:52.491Z,9.45
2019-03-19T10:56:55.596Z,9.72
2019-03-19T11:00:04.071Z,9.73
2019-03-19T11:03:07.299Z,9.49
2019-03-19T11:06:10.495Z,9.35
2019-03-19T11:09:13.692Z,9.42
2019-03-19T11:12:16.888Z,9.68
2019-03-19T11:15:20.090Z,10.06
2019-03-19T11:18:23.370Z,10.53
2019-03-19T11:21:26.581Z,11.07
2019-03-19T11:24:30.091Z,11.08
2019-03-19T11:27:33.383Z,10.80
2019-03-19T11:30:36.693Z,10.99
2019-03-19T11:33:39.854Z,11.39
2019-03-19T11:36:43.076Z,10.67
2019-03-19T11:39:46.187Z,10.07
2019-03-19T11:42:49.379Z,10.06
2019-03-19T11:45:52.544Z,9.77
2019-03-19T11:48:55.716Z,9.51
2019-03-19T11:51:58.930Z,9.98
2019-03-19T11:55:02.128Z,10.00
2019-03-19T11:58:05.434Z,10.34
2019-03-19T12:01:08.656Z,10.42
2019-03-19T12:04:11.799Z,10.33
2019-03-19T12:07:14.983Z,10.17
2019-03-19T12:10:18.079Z,10.80
2019-03-19T12:13:21.309Z,10.91
2019-03-19T12:16:24.465Z,10.23
2019-03-19T12:19:27.668Z,9.93
2019-03-19T12:22:30.775Z,10.31
2019-03-19T12:25:33.962Z,10.26
2019-03-19T12:28:39.836Z,10.12
2019-03-19T12:31:40.448Z,9.75
2019-03-19T12:34:43.647Z,9.62
2019-03-19T12:37:46.944Z,9.92
2019-03-19T12:40:50.141Z,10.79
2019-03-19T12:43:53.331Z,11.05
2019-03-19T12:46:56.546Z,11.35
2019-03-19T12:49:59.715Z,11.52
2019-03-19T12:53:02.912Z,11.24
2019-03-19T12:56:06.110Z,11.18
2019-03-19T12:59:19.475Z,10.93
2019-03-19T13:02:12.416Z,10.85
2019-03-19T13:05:15.698Z,10.94
2019-03-19T13:08:20.398Z,10.53
2019-03-19T13:11:22.204Z,10.63
2019-03-19T13:14:25.372Z,10.75
2019-03-19T13:17:28.578Z,10.54
2019-03-19T13:20:31.773Z,10.47
2019-03-19T13:23:34.956Z,10.72
2019-03-19T13:26:38.152Z,10.57
2019-03-19T13:29:41.352Z,10.34
2019-03-19T13:32:44.558Z,10.24
2019-03-19T13:35:47.725Z,10.39
2019-03-19T13:38:50.820Z,10.71
2019-03-19T13:41:54.051Z,11.44
2019-03-19T13:44:57.216Z,11.77
2019-03-19T13:48:00.447Z,11.80
2019-03-19T13:51:03.536Z,11.74
2019-03-19T13:54:06.724Z,11.84
2019-03-19T13:57:09.891Z,12.21
2019-03-19T14:00:13.678Z,12.73
2019-03-19T14:03:16.799Z,13.45
2019-03-19T14:06:19.892Z,12.04
2019-03-19T14:09:23.080Z,12.13
2019-03-19T14:12:26.313Z,12.40
2019-03-19T14:15:29.499Z,12.26
2019-03-19T14:18:32.677Z,12.51
2019-03-19T14:21:36.002Z,12.78
2019-03-19T14:24:39.170Z,12.53
2019-03-19T14:27:43.103Z,13.40
2019-03-19T14:30:46.288Z,13.71
2019-03-19T14:33:49.554Z,13.86
2019-03-19T14:36:52.748Z,13.71
2019-03-19T14:39:55.923Z,13.34
2019-03-19T14:43:01.339Z,13.34
2019-03-19T14:46:02.235Z,13.38
2019-03-19T14:49:05.339Z,13.71
2019-03-19T14:52:08.533Z,13.53
2019-03-19T14:55:11.915Z,12.67
2019-03-19T14:58:15.061Z,13.25
2019-03-19T15:01:19.674Z,13.35
2019-03-19T15:04:21.424Z,13.76
2019-03-19T15:07:24.696Z,13.78
2019-03-19T15:10:27.948Z,13.61
2019-03-19T15:13:31.112Z,13.97
2019-03-19T15:16:34.606Z,13.97
2019-03-19T15:19:37.791Z,14.04
2019-03-19T15:22:40.992Z,13.28
2019-03-19T15:25:44.291Z,12.57
2019-03-19T15:28:47.503Z,12.41
2019-03-19T15:31:50.667Z,13.10
2019-03-19T15:34:53.865Z,13.15
2019-03-19T15:37:57.061Z,13.17
2019-03-19T15:41:00.267Z,12.68
2019-03-19T15:44:03.641Z,12.61
2019-03-19T15:47:06.746Z,12.26
2019-03-19T15:50:11.652Z,12.10
2019-03-19T15:53:14.771Z,12.11
2019-03-19T15:56:17.963Z,12.41
2019-03-19T15:59:21.169Z,12.63
2019-03-19T16:02:24.460Z,12.19
2019-03-19T16:05:27.652Z,12.46
2019-03-19T16:08:30.740Z,12.53
2019-03-19T16:11:33.939Z,12.39
2019-03-19T16:14:37.143Z,12.60
2019-03-19T16:17:40.339Z,12.30
2019-03-19T16:20:43.555Z,11.63
2019-03-19T16:23:46.646Z,11.41
2019-03-19T16:26:49.850Z,11.34
2019-03-19T16:29:53.009Z,11.32
2019-03-19T16:32:56.200Z,11.42
2019-03-19T16:35:59.384Z,11.41
2019-03-19T16:39:02.493Z,11.24
2019-03-19T16:42:05.686Z,11.16
2019-03-19T16:45:09.481Z,10.92
2019-03-19T16:48:12.588Z,11.00
2019-03-19T16:51:15.948Z,10.80
2019-03-19T16:54:19.072Z,10.86
2019-03-19T16:57:22.191Z,10.78
2019-03-19T17:00:25.379Z,10.73
2019-03-19T17:03:28.544Z,10.67
2019-03-19T17:06:31.647Z,10.74
2019-03-19T17:09:34.867Z,10.53
2019-03-19T17:12:38.040Z,10.44
2019-03-19T17:15:41.135Z,10.49
2019-03-19T17:18:44.327Z,10.47
2019-03-19T17:21:47.517Z,10.46
2019-03-19T17:24:50.596Z,10.36
2019-03-19T17:27:53.770Z,10.24
2019-03-19T17:30:56.902Z,10.22
2019-03-19T17:34:00.108Z,10.12
2019-03-19T17:37:03.292Z,10.14
2019-03-19T17:40:07.156Z,10.12
2019-03-19T17:43:10.284Z,10.13
2019-03-19T17:46:13.578Z,10.09
2019-03-19T17:49:16.734Z,9.95
2019-03-19T17:52:19.873Z,9.87
2019-03-19T17:55:23.069Z,9.63
2019-03-19T17:58:26.355Z,9.40
2019-03-19T18:01:29.560Z,9.23
2019-03-19T18:04:32.757Z,9.21
2019-03-19T18:07:35.943Z,9.05
2019-03-19T18:10:39.052Z,8.88
2019-03-19T18:13:42.239Z,8.68
2019-03-19T18:16:45.439Z,8.61
2019-03-19T18:19:48.707Z,8.57
2019-03-19T18:22:51.842Z,8.46
2019-03-19T18:25:55.020Z,8.44
2019-03-19T18:28:58.200Z,8.39
2019-03-19T18:32:01.535Z,8.35
2019-03-19T18:35:05.448Z,8.28
2019-03-19T18:38:08.613Z,8.21
2019-03-19T18:41:11.812Z,8.11
2019-03-19T18:44:15.003Z,8.04
2019-03-19T18:47:18.200Z,8.02
2019-03-19T18:50:23.380Z,8.03
2019-03-19T18:53:26.636Z,7.89
2019-03-19T18:56:29.863Z,7.76
2019-03-19T18:59:33.126Z,7.68
2019-03-19T19:02:36.412Z,7.62
2019-03-19T19:05:39.559Z,7.50
2019-03-19T19:08:42.785Z,7.39
2019-03-19T19:11:45.996Z,7.38
2019-03-19T19:14:49.208Z,7.38
2019-03-19T19:17:52.491Z,7.38
2019-03-19T19:20:55.604Z,7.10
2019-03-19T19:23:58.789Z,7.00
2019-03-19T19:27:02.190Z,6.99
2019-03-19T19:30:06.200Z,7.01
2019-03-19T19:33:10.103Z,7.00
2019-03-19T19:36:13.299Z,6.99
2019-03-19T19:39:16.575Z,6.88
2019-03-19T19:42:19.707Z,6.76
2019-03-19T19:45:23.005Z,6.59
2019-03-19T19:48:26.200Z,6.49
2019-03-19T19:51:29.392Z,6.49
2019-03-19T19:54:32.630Z,6.48
2019-03-19T19:57:35.875Z,5.91
2019-03-19T20:00:39.215Z,5.74
2019-03-19T20:03:42.345Z,5.83
2019-03-19T20:06:45.548Z,5.78
2019-03-19T20:09:48.675Z,5.89
2019-03-19T20:12:52.129Z,6.05
2019-03-19T20:15:55.244Z,5.94
2019-03-19T20:18:58.561Z,5.99
2019-03-19T20:22:02.674Z,5.98
2019-03-19T20:25:06.068Z,5.93
2019-03-19T20:28:09.288Z,5.99
2019-03-19T20:31:12.550Z,6.03
2019-03-19T20:34:15.775Z,6.06
2019-03-19T20:37:19.016Z,5.89
2019-03-19T20:40:22.195Z,5.75
2019-03-19T20:43:25.445Z,5.55
2019-03-19T20:46:28.712Z,5.39
2019-03-19T20:49:31.910Z,5.41
2019-03-19T20:52:35.037Z,5.42
2019-03-19T20:55:38.351Z,5.44
2019-03-19T20:58:43.740Z,5.48
2019-03-19T21:01:44.699Z,5.36
2019-03-19T21:04:47.974Z,5.17
2019-03-19T21:07:51.433Z,5.15
2019-03-19T21:10:54.655Z,5.16
2019-03-19T21:13:58.496Z,5.09
2019-03-19T21:17:01.712Z,5.12
2019-03-19T21:20:06.272Z,4.99
2019-03-19T21:23:09.495Z,4.97
2019-03-19T21:26:12.664Z,5.01
2019-03-19T21:29:16.818Z,4.88
2019-03-19T21:32:20.603Z,4.77
2019-03-19T21:35:23.733Z,4.64
2019-03-19T21:38:28.480Z,4.42
2019-03-19T21:41:31.822Z,4.25
2019-03-19T21:44:35.121Z,4.11
2019-03-19T21:47:38.611Z,4.10
2019-03-19T21:50:41.770Z,4.05
2019-03-19T21:53:44.981Z,4.22
2019-03-19T21:56:48.267Z,4.24
2019-03-19T21:59:51.529Z,4.13
2019-03-19T22:02:54.681Z,4.11
2019-03-19T22:05:57.856Z,4.17
2019-03-19T22:09:01.728Z,4.15
2019-03-19T22:12:05.023Z,4.01
2019-03-19T22:15:13.099Z,4.04
2019-03-19T22:18:16.247Z,4.11
2019-03-19T22:21:19.479Z,4.16
2019-03-19T22:24:22.744Z,4.08
2019-03-19T22:27:26.015Z,4.10
2019-03-19T22:30:29.499Z,4.16
2019-03-19T22:33:33.668Z,4.12
2019-03-19T22:36:35.947Z,4.06
2019-03-19T22:39:39.134Z,4.06
2019-03-19T22:42:42.287Z,3.95
2019-03-19T22:45:45.635Z,3.62
2019-03-19T22:48:48.792Z,3.65
2019-03-19T22:51:52.125Z,3.62
2019-03-19T22:54:55.563Z,3.71
2019-03-19T22:57:58.827Z,3.32
2019-03-19T23:01:01.983Z,3.29
2019-03-19T23:04:05.268Z,3.45
2019-03-19T23:07:08.566Z,3.39
2019-03-19T23:10:11.712Z,3.33
2019-03-19T23:13:14.895Z,3.31
2019-03-19T23:16:18.107Z,3.18
2019-03-19T23:19:24.523Z,3.20
2019-03-19T23:22:27.772Z,3.25
2019-03-19T23:25:31.739Z,3.32
2019-03-19T23:28:35.033Z,3.28
2019-03-19T23:31:39.195Z,3.26
2019-03-19T23:34:42.456Z,3.25
2019-03-19T23:37:45.694Z,3.13
2019-03-19T23:40:48.843Z,3.04
2019-03-19T23:43:52.135Z,2.84
2019-03-19T23:46:57.588Z,2.80
2019-03-19T23:49:58.722Z,2.73
2019-03-19T23:53:01.979Z,2.82
2019-03-19T23:56:05.232Z,2.87
2019-03-19T23:59:08.445Z,2.77
